createdAt,value
2019-02-28T00:00:58.509Z,25.77
2019-02-28T00:03:27.285Z,25.90
2019-02-28T00:05:55.665Z,27.03
2019-02-28T00:08:23.914Z,27.57
2019-02-28T00:10:52.171Z,28.50
2019-02-28T00:13:21.702Z,27.30
2019-02-28T00:15:50.445Z,25.47
2019-02-28T00:18:20.012Z,26.57
2019-02-28T00:20:48.309Z,27.70
2019-02-28T00:23:19.260Z,26.50
2019-02-28T00:25:48.261Z,25.10
2019-02-28T00:28:16.496Z,25.53
2019-02-28T00:30:44.793Z,26.50
2019-02-28T00:33:13.030Z,27.50
2019-02-28T00:35:44.583Z,27.80
2019-02-28T00:38:11.588Z,24.87
2019-02-28T00:40:39.839Z,26.20
2019-02-28T00:43:08.132Z,30.03
2019-02-28T00:45:37.325Z,27.97
2019-02-28T00:48:05.678Z,26.90
2019-02-28T00:50:33.918Z,27.10
2019-02-28T00:53:02.165Z,25.52
2019-02-28T00:55:30.460Z,29.47
2019-02-28T00:57:58.717Z,28.37
2019-02-28T01:00:26.973Z,27.63
2019-02-28T01:02:55.226Z,27.80
2019-02-28T01:05:23.470Z,26.75
2019-02-28T01:07:51.752Z,31.53
2019-02-28T01:10:20.080Z,29.47
2019-02-28T01:12:53.270Z,33.37
2019-02-28T01:15:18.422Z,28.57
2019-02-28T01:17:46.763Z,31.97
2019-02-28T01:20:16.488Z,26.80
2019-02-28T01:22:45.353Z,27.80
2019-02-28T01:25:15.241Z,28.90
2019-02-28T01:27:43.561Z,26.47
2019-02-28T01:30:13.345Z,29.30
2019-02-28T01:32:41.586Z,29.10
2019-02-28T01:35:09.942Z,31.00
2019-02-28T01:37:38.205Z,31.27
2019-02-28T01:40:08.871Z,32.80
2019-02-28T01:42:37.129Z,32.17
2019-02-28T01:45:09.978Z,34.43
2019-02-28T01:47:38.458Z,32.27
2019-02-28T01:50:08.339Z,31.63
2019-02-28T01:52:36.830Z,31.37
2019-02-28T01:55:06.523Z,32.70
2019-02-28T01:57:36.408Z,34.00
2019-02-28T02:00:19.177Z,29.40
2019-02-28T02:02:47.414Z,35.63
2019-02-28T02:05:16.856Z,30.13
2019-02-28T02:07:45.693Z,31.00
2019-02-28T02:10:21.681Z,32.85
2019-02-28T02:12:51.308Z,30.93
2019-02-28T02:15:20.047Z,29.23
2019-02-28T02:17:48.277Z,34.30
2019-02-28T02:20:17.003Z,31.30
2019-02-28T02:22:47.117Z,30.93
2019-02-28T02:25:15.409Z,29.00
2019-02-28T02:27:43.647Z,32.10
2019-02-28T02:30:15.930Z,31.90
2019-02-28T02:32:44.446Z,32.73
2019-02-28T02:35:12.719Z,29.67
2019-02-28T02:37:40.973Z,33.23
2019-02-28T02:40:14.404Z,38.20
2019-02-28T02:42:47.625Z,32.27
2019-02-28T02:45:14.370Z,33.60
2019-02-28T02:47:43.173Z,32.30
2019-02-28T02:50:13.346Z,35.05
2019-02-28T02:52:41.650Z,35.47
2019-02-28T02:55:09.875Z,34.33
2019-02-28T02:57:38.314Z,32.10
2019-02-28T03:00:17.543Z,31.63
2019-02-28T03:02:45.858Z,31.10
2019-02-28T03:05:14.369Z,29.95
2019-02-28T03:07:42.701Z,29.13
2019-02-28T03:10:17.322Z,32.30
2019-02-28T03:12:43.233Z,33.13
2019-02-28T03:15:15.539Z,30.00
2019-02-28T03:17:47.278Z,29.93
2019-02-28T03:20:14.092Z,33.08
2019-02-28T03:22:44.773Z,31.47
2019-02-28T03:25:15.414Z,28.95
2019-02-28T03:27:43.716Z,31.37
2019-02-28T03:30:25.800Z,31.97
2019-02-28T03:32:44.962Z,31.73
2019-02-28T03:35:13.230Z,30.65
2019-02-28T03:37:41.513Z,34.27
2019-02-28T03:40:11.389Z,31.93
2019-02-28T03:42:39.637Z,32.93
2019-02-28T03:45:10.149Z,36.37
2019-02-28T03:47:38.373Z,33.20
2019-02-28T03:50:08.013Z,33.43
2019-02-28T03:52:41.692Z,33.30
2019-02-28T03:55:08.506Z,31.23
2019-02-28T03:57:36.745Z,35.07
2019-02-28T04:00:13.738Z,36.23
2019-02-28T04:02:41.964Z,32.78
2019-02-28T04:05:10.251Z,33.13
2019-02-28T04:07:38.708Z,34.00
2019-02-28T04:10:09.486Z,32.70
2019-02-28T04:12:44.985Z,38.30
2019-02-28T04:15:11.313Z,34.37
2019-02-28T04:17:39.713Z,35.17
2019-02-28T04:20:08.217Z,35.63
2019-02-28T04:22:36.638Z,34.83
2019-02-28T04:25:06.935Z,33.20
2019-02-28T04:27:35.183Z,30.40
2019-02-28T04:30:07.954Z,35.63
2019-02-28T04:32:34.291Z,29.97
2019-02-28T04:35:02.629Z,31.33
2019-02-28T04:37:30.930Z,32.27
2019-02-28T04:39:59.194Z,32.57
2019-02-28T04:42:27.492Z,31.50
2019-02-28T04:44:55.943Z,31.17
2019-02-28T04:47:24.299Z,29.25
2019-02-28T04:49:53.501Z,33.93
2019-02-28T04:52:22.925Z,33.93
2019-02-28T04:54:51.166Z,35.83
2019-02-28T04:57:20.717Z,36.73
2019-02-28T04:59:49.520Z,32.67
2019-02-28T05:02:20.056Z,33.03
2019-02-28T05:04:47.765Z,31.30
2019-02-28T05:07:16.030Z,36.23
2019-02-28T05:09:45.299Z,38.40
2019-02-28T05:12:14.435Z,34.15
2019-02-28T05:14:42.681Z,32.03
2019-02-28T05:17:10.940Z,33.25
2019-02-28T05:19:39.165Z,32.60
2019-02-28T05:22:07.433Z,33.90
2019-02-28T05:24:35.674Z,32.80
2019-02-28T05:27:03.929Z,34.10
2019-02-28T05:29:32.270Z,33.17
2019-02-28T05:32:00.956Z,35.17
2019-02-28T05:34:30.078Z,36.63
2019-02-28T05:36:58.332Z,33.87
2019-02-28T05:39:28.245Z,39.23
2019-02-28T05:41:56.572Z,33.73
2019-02-28T05:44:24.813Z,37.80
2019-02-28T05:46:57.608Z,36.48
2019-02-28T05:49:23.237Z,36.73
2019-02-28T05:51:51.577Z,39.00
2019-02-28T05:54:19.864Z,40.65
2019-02-28T05:56:51.143Z,38.10
2019-02-28T05:59:19.395Z,38.08
2019-02-28T06:01:49.309Z,41.63
2019-02-28T06:04:17.575Z,34.53
2019-02-28T06:06:45.882Z,43.77
2019-02-28T06:09:14.814Z,34.70
2019-02-28T06:11:43.951Z,41.40
2019-02-28T06:14:12.409Z,37.60
2019-02-28T06:16:46.365Z,36.57
2019-02-28T06:19:10.658Z,37.43
2019-02-28T06:21:38.937Z,37.08
2019-02-28T06:24:07.155Z,39.17
2019-02-28T06:26:35.492Z,38.33
2019-02-28T06:29:05.134Z,32.90
2019-02-28T06:31:34.498Z,39.83
2019-02-28T06:34:05.621Z,35.37
2019-02-28T06:36:32.940Z,32.63
2019-02-28T06:39:01.200Z,39.20
2019-02-28T06:41:29.444Z,34.47
2019-02-28T06:43:59.500Z,36.40
2019-02-28T06:46:27.741Z,39.67
2019-02-28T06:49:01.491Z,39.43
2019-02-28T06:51:26.275Z,39.77
2019-02-28T06:53:54.505Z,37.23
2019-02-28T06:56:23.222Z,40.40
2019-02-28T06:58:51.812Z,36.67
2019-02-28T07:01:22.744Z,37.03
2019-02-28T07:03:53.503Z,38.17
2019-02-28T07:06:20.142Z,40.30
2019-02-28T07:08:48.445Z,35.30
2019-02-28T07:11:19.861Z,37.33
2019-02-28T07:13:46.701Z,41.10
2019-02-28T07:16:14.935Z,37.33
2019-02-28T07:18:44.809Z,36.13
2019-02-28T07:21:13.212Z,36.23
2019-02-28T07:23:41.528Z,38.33
2019-02-28T07:26:09.779Z,39.60
2019-02-28T07:28:38.050Z,35.20
2019-02-28T07:31:06.358Z,34.20
2019-02-28T07:33:34.592Z,34.53
2019-02-28T07:36:05.568Z,39.17
2019-02-28T07:38:34.442Z,39.50
2019-02-28T07:41:02.673Z,39.83
2019-02-28T07:43:30.930Z,32.57
2019-02-28T07:46:00.812Z,38.70
2019-02-28T07:48:30.089Z,38.87
2019-02-28T07:50:59.248Z,38.83
2019-02-28T07:53:27.724Z,42.60
2019-02-28T07:55:56.037Z,39.37
2019-02-28T07:58:26.573Z,41.37
2019-02-28T08:00:55.807Z,39.60
2019-02-28T08:03:27.373Z,39.60
2019-02-28T08:05:55.627Z,40.27
2019-02-28T08:08:26.336Z,42.23
2019-02-28T08:10:54.066Z,39.83
2019-02-28T08:23:48.730Z,34.37
2019-02-28T08:26:18.823Z,39.50
2019-02-28T08:28:48.591Z,38.67
2019-02-28T08:31:16.837Z,45.77
2019-02-28T08:33:48.178Z,42.50
2019-02-28T08:36:16.768Z,36.17
2019-02-28T08:38:45.059Z,40.73
2019-02-28T08:41:13.297Z,41.37
2019-02-28T08:43:44.598Z,41.30
2019-02-28T08:46:13.719Z,42.87
2019-02-28T08:48:42.000Z,48.70
2019-02-28T08:51:10.241Z,41.03
2019-02-28T08:53:40.449Z,41.50
2019-02-28T08:56:11.015Z,44.27
2019-02-28T08:58:38.657Z,42.73
2019-02-28T09:01:07.485Z,51.65
2019-02-28T09:03:35.729Z,41.90
2019-02-28T09:06:07.151Z,45.57
2019-02-28T09:08:33.956Z,41.20
2019-02-28T09:11:02.184Z,39.77
2019-02-28T09:13:30.412Z,38.83
2019-02-28T09:15:58.769Z,45.47
2019-02-28T09:18:27.033Z,39.93
2019-02-28T09:20:55.324Z,44.33
2019-02-28T09:23:23.695Z,45.37
2019-02-28T09:25:53.343Z,42.20
2019-02-28T09:28:22.021Z,49.97
2019-02-28T09:30:55.510Z,43.60
2019-02-28T09:33:24.041Z,41.17
2019-02-28T09:35:52.314Z,46.73
2019-02-28T09:38:22.209Z,46.23
2019-02-28T09:40:50.446Z,43.13
2019-02-28T09:43:18.686Z,44.27
2019-02-28T09:45:47.213Z,43.60
2019-02-28T09:48:15.490Z,41.33
2019-02-28T09:50:43.726Z,46.40
2019-02-28T09:53:15.549Z,50.30
2019-02-28T09:55:42.082Z,42.60
2019-02-28T09:58:10.334Z,48.87
2019-02-28T10:00:38.667Z,48.30
2019-02-28T10:03:07.824Z,42.20
2019-02-28T10:05:38.833Z,52.13
2019-02-28T10:08:08.837Z,41.23
2019-02-28T10:10:37.137Z,50.00
2019-02-28T10:13:06.303Z,48.77
2019-02-28T10:15:34.642Z,53.97
2019-02-28T10:18:04.361Z,40.83
2019-02-28T10:20:38.126Z,45.67
2019-02-28T10:23:07.309Z,47.97
2019-02-28T10:25:40.088Z,58.73
2019-02-28T10:28:05.529Z,47.03
2019-02-28T10:30:33.848Z,45.40
2019-02-28T10:33:02.085Z,47.13
2019-02-28T10:35:30.336Z,46.10
2019-02-28T10:38:00.305Z,49.53
2019-02-28T10:40:29.676Z,44.13
2019-02-28T10:42:57.933Z,52.50
2019-02-28T10:45:26.667Z,49.23
2019-02-28T10:47:55.181Z,48.40
2019-02-28T10:50:33.276Z,46.18
2019-02-28T10:53:03.997Z,50.78
2019-02-28T10:55:30.968Z,45.80
2019-02-28T10:57:59.205Z,49.93
2019-02-28T11:00:33.668Z,44.50
2019-02-28T11:03:02.414Z,48.83
2019-02-28T11:05:35.359Z,47.83
2019-02-28T11:08:04.533Z,49.03
2019-02-28T11:10:40.905Z,55.70
2019-02-28T11:13:18.171Z,46.10
2019-02-28T11:15:48.405Z,45.57
2019-02-28T11:18:16.481Z,51.63
2019-02-28T11:20:52.643Z,52.63
2019-02-28T11:23:21.518Z,50.30
2019-02-28T11:25:49.750Z,43.40
2019-02-28T11:28:18.085Z,42.33
2019-02-28T11:30:46.770Z,43.87
2019-02-28T11:33:16.158Z,41.07
2019-02-28T11:35:45.112Z,42.80
2019-02-28T11:38:13.389Z,41.40
2019-02-28T11:40:43.914Z,47.80
2019-02-28T11:43:11.772Z,50.33
2019-02-28T11:45:43.545Z,37.60
2019-02-28T11:48:23.546Z,36.33
2019-02-28T11:50:51.794Z,41.57
2019-02-28T11:53:20.110Z,37.17
2019-02-28T11:55:48.419Z,34.43
2019-02-28T11:58:17.953Z,36.48
2019-02-28T12:00:46.507Z,34.85
2019-02-28T12:03:14.761Z,34.20
2019-02-28T12:05:43.009Z,31.17
2019-02-28T12:08:12.900Z,34.87
2019-02-28T12:10:41.159Z,32.47
2019-02-28T12:13:09.412Z,35.40
2019-02-28T12:15:39.498Z,38.83
2019-02-28T12:18:07.764Z,28.77
2019-02-28T12:20:37.088Z,40.23
2019-02-28T12:23:05.365Z,55.27
2019-02-28T12:25:33.975Z,47.30
2019-02-28T12:28:04.734Z,50.47
2019-02-28T12:30:33.255Z,49.50
2019-02-28T12:33:01.582Z,55.97
2019-02-28T12:35:29.897Z,51.13
2019-02-28T12:37:58.150Z,55.87
2019-02-28T12:40:32.542Z,45.30
2019-02-28T12:43:01.113Z,55.23
2019-02-28T12:45:34.453Z,46.13
2019-02-28T12:48:03.022Z,46.53
2019-02-28T12:50:31.430Z,44.97
2019-02-28T12:52:59.681Z,41.50
2019-02-28T12:55:27.962Z,40.67
2019-02-28T12:57:57.927Z,39.80
2019-02-28T13:00:38.510Z,38.95
2019-02-28T13:03:08.984Z,41.90
2019-02-28T13:05:36.802Z,37.03
2019-02-28T13:08:06.030Z,38.57
2019-02-28T13:10:38.187Z,39.80
2019-02-28T13:13:07.800Z,36.93
2019-02-28T13:15:36.338Z,35.93
2019-02-28T13:18:09.158Z,34.57
2019-02-28T13:20:36.981Z,28.30
2019-02-28T13:23:07.013Z,17.60
2019-02-28T13:25:35.380Z,20.17
2019-02-28T13:28:03.624Z,12.93
2019-02-28T13:30:31.874Z,15.83
2019-02-28T13:33:00.112Z,13.97
2019-02-28T13:35:45.710Z,11.03
2019-02-28T13:38:09.619Z,13.20
2019-02-28T13:40:40.853Z,10.53
2019-02-28T13:43:07.917Z,11.70
2019-02-28T13:45:36.210Z,13.53
2019-02-28T13:48:04.514Z,15.60
2019-02-28T13:50:36.077Z,13.27
2019-02-28T13:53:17.491Z,11.97
2019-02-28T13:55:35.614Z,10.80
2019-02-28T13:58:04.376Z,11.97
2019-02-28T14:00:34.076Z,7.37
2019-02-28T14:03:08.890Z,11.00
2019-02-28T14:05:40.770Z,6.12
2019-02-28T14:08:09.747Z,9.20
2019-02-28T14:10:35.490Z,10.90
2019-02-28T14:13:03.862Z,9.20
2019-02-28T14:15:40.955Z,8.27
2019-02-28T14:18:10.935Z,9.17
2019-02-28T14:20:39.197Z,13.37
2019-02-28T14:23:08.063Z,6.35
2019-02-28T14:25:39.825Z,8.43
2019-02-28T14:28:08.013Z,8.50
2019-02-28T14:30:36.294Z,7.30
2019-02-28T14:33:05.211Z,12.47
2019-02-28T14:35:35.524Z,6.73
2019-02-28T14:38:03.499Z,7.30
2019-02-28T14:40:31.802Z,9.13
2019-02-28T14:43:00.091Z,9.00
2019-02-28T14:45:34.303Z,8.47
2019-02-28T14:48:04.133Z,9.67
2019-02-28T14:50:34.179Z,8.40
2019-02-28T14:53:02.540Z,8.70
2019-02-28T14:55:32.606Z,10.40
2019-02-28T14:58:00.883Z,10.40
2019-02-28T15:00:35.336Z,11.90
2019-02-28T15:03:05.521Z,14.10
2019-02-28T15:05:40.308Z,8.60
2019-02-28T15:08:11.736Z,9.57
2019-02-28T15:10:38.611Z,9.63
2019-02-28T15:13:06.887Z,11.10
2019-02-28T15:15:36.267Z,11.73
2019-02-28T15:18:05.111Z,14.13
2019-02-28T15:20:33.432Z,10.07
2019-02-28T15:23:01.698Z,9.73
2019-02-28T15:25:30.673Z,11.50
2019-02-28T15:27:58.930Z,11.63
2019-02-28T15:30:40.830Z,8.47
2019-02-28T15:33:09.074Z,8.97
2019-02-28T15:35:37.310Z,9.70
2019-02-28T15:38:08.775Z,11.70
2019-02-28T15:40:40.836Z,9.20
2019-02-28T15:43:09.196Z,8.93
2019-02-28T15:45:37.480Z,9.70
2019-02-28T15:48:06.225Z,9.47
2019-02-28T15:50:34.459Z,8.57
2019-02-28T15:53:02.861Z,9.97
2019-02-28T15:55:31.118Z,8.10
2019-02-28T15:57:59.389Z,11.73
2019-02-28T16:00:34.561Z,10.50
2019-02-28T16:03:02.843Z,13.40
2019-02-28T16:05:31.102Z,7.73
2019-02-28T16:07:59.350Z,9.80
2019-02-28T16:10:31.806Z,5.93
2019-02-28T16:12:59.621Z,7.40
2019-02-28T16:15:27.855Z,6.73
2019-02-28T16:17:56.203Z,4.33
2019-02-28T16:20:25.062Z,6.80
2019-02-28T16:22:53.454Z,6.95
2019-02-28T16:25:24.558Z,6.47
2019-02-28T16:27:52.790Z,9.30
2019-02-28T16:30:21.098Z,8.15
2019-02-28T16:32:50.157Z,3.53
2019-02-28T16:35:18.550Z,5.27
2019-02-28T16:37:46.788Z,4.58
2019-02-28T16:40:27.199Z,5.30
2019-02-28T16:42:55.583Z,6.23
2019-02-28T16:45:43.048Z,4.20
2019-02-28T16:48:11.284Z,4.33
2019-02-28T16:50:39.532Z,6.27
2019-02-28T16:53:07.778Z,5.78
2019-02-28T16:55:36.015Z,4.27
2019-02-28T16:58:04.568Z,4.50
2019-02-28T17:00:33.236Z,5.17
2019-02-28T17:03:04.029Z,4.27
2019-02-28T17:05:31.662Z,5.30
2019-02-28T17:07:59.913Z,7.33
2019-02-28T17:10:33.005Z,4.77
2019-02-28T17:13:17.955Z,8.07
2019-02-28T17:15:47.843Z,4.60
2019-02-28T17:18:23.565Z,6.10
2019-02-28T17:20:51.888Z,5.50
2019-02-28T17:23:20.120Z,7.65
2019-02-28T17:25:48.379Z,6.30
2019-02-28T17:28:24.015Z,6.63
2019-02-28T17:31:11.514Z,5.03
2019-02-28T17:33:43.309Z,7.87
2019-02-28T17:36:11.668Z,5.13
2019-02-28T17:39:00.302Z,5.77
2019-02-28T17:41:37.927Z,7.57
2019-02-28T17:44:15.102Z,10.70
2019-02-28T17:46:46.539Z,11.73
2019-02-28T17:49:26.396Z,11.20
2019-02-28T17:51:58.551Z,13.38
2019-02-28T17:55:02.061Z,13.23
2019-02-28T17:57:52.356Z,12.07
2019-02-28T18:00:35.429Z,12.15
2019-02-28T18:03:22.069Z,12.40
2019-02-28T18:06:08.845Z,13.95
2019-02-28T18:09:04.684Z,12.23
2019-02-28T18:11:38.978Z,17.87
2019-02-28T18:14:22.554Z,18.27
2019-02-28T18:17:10.476Z,16.33
2019-02-28T18:20:15.366Z,18.47
2019-02-28T18:22:55.448Z,17.97
2019-02-28T18:25:30.070Z,17.40
2019-02-28T18:28:18.806Z,16.93
2019-02-28T18:31:08.989Z,18.57
2019-02-28T18:33:41.875Z,21.00
2019-02-28T18:36:14.620Z,12.97
2019-02-28T18:38:42.981Z,12.37
2019-02-28T18:41:11.419Z,13.13
2019-02-28T18:43:40.480Z,8.63
2019-02-28T18:46:08.853Z,6.53
2019-02-28T18:48:37.093Z,5.70
2019-02-28T18:51:05.866Z,5.35
2019-02-28T18:53:34.187Z,4.42
2019-02-28T18:56:05.295Z,4.70
2019-02-28T18:58:33.531Z,5.07
2019-02-28T19:01:12.751Z,3.57
2019-02-28T19:03:41.214Z,5.60
2019-02-28T19:06:09.453Z,7.63
2019-02-28T19:08:37.722Z,6.87
2019-02-28T19:11:06.307Z,4.83
2019-02-28T19:13:34.662Z,6.40
2019-02-28T19:16:03.031Z,6.70
2019-02-28T19:18:31.263Z,7.10
2019-02-28T19:20:59.496Z,9.63
2019-02-28T19:23:27.764Z,8.43
2019-02-28T19:25:55.994Z,11.13
2019-02-28T19:28:24.305Z,9.90
2019-02-28T19:30:52.859Z,7.27
2019-02-28T19:33:21.091Z,8.63
2019-02-28T19:35:49.328Z,7.00
2019-02-28T19:38:17.582Z,7.03
2019-02-28T19:40:45.826Z,9.27
2019-02-28T19:43:14.086Z,7.62
2019-02-28T19:45:45.951Z,10.20
2019-02-28T19:48:14.185Z,7.70
2019-02-28T19:50:42.506Z,10.30
2019-02-28T19:53:11.103Z,8.53
2019-02-28T19:55:39.339Z,11.13
2019-02-28T19:58:07.583Z,7.57
2019-02-28T20:00:37.909Z,7.47
2019-02-28T20:03:06.957Z,5.90
2019-02-28T20:05:35.191Z,7.90
2019-02-28T20:08:03.455Z,8.60
2019-02-28T20:10:31.757Z,7.00
2019-02-28T20:13:00.003Z,8.10
2019-02-28T20:15:29.919Z,11.40
2019-02-28T20:17:59.938Z,9.63
2019-02-28T20:20:39.323Z,5.23
2019-02-28T20:23:07.718Z,6.27
2019-02-28T20:25:35.959Z,7.43
2019-02-28T20:28:04.195Z,8.33
2019-02-28T20:30:32.533Z,8.40
2019-02-28T20:33:00.906Z,11.70
2019-02-28T20:35:30.476Z,7.23
2019-02-28T20:37:58.825Z,7.07
2019-02-28T20:40:37.369Z,6.00
2019-02-28T20:43:05.922Z,7.57
2019-02-28T20:45:34.541Z,9.10
2019-02-28T20:48:04.273Z,13.60
2019-02-28T20:50:46.255Z,13.13
2019-02-28T20:53:14.706Z,8.95
2019-02-28T20:55:42.964Z,10.23
2019-02-28T20:58:11.323Z,11.83
2019-02-28T21:00:40.646Z,8.03
2019-02-28T21:03:09.177Z,11.83
2019-02-28T21:05:37.433Z,8.13
2019-02-28T21:08:06.478Z,12.10
2019-02-28T21:10:34.714Z,8.23
2019-02-28T21:13:03.003Z,9.87
2019-02-28T21:15:31.239Z,10.37
2019-02-28T21:17:59.480Z,12.10
2019-02-28T21:20:28.073Z,10.90
2019-02-28T21:22:56.323Z,7.90
2019-02-28T21:25:24.630Z,8.77
2019-02-28T21:27:52.873Z,9.20
2019-02-28T21:30:25.192Z,12.03
2019-02-28T21:32:53.438Z,10.93
2019-02-28T21:35:23.587Z,9.23
2019-02-28T21:37:51.823Z,10.13
2019-02-28T21:40:21.006Z,9.63
2019-02-28T21:42:49.300Z,7.73
2019-02-28T21:45:25.261Z,8.20
2019-02-28T21:47:53.563Z,10.13
2019-02-28T21:50:22.007Z,8.83
2019-02-28T21:52:53.185Z,9.73
2019-02-28T21:55:21.419Z,8.73
2019-02-28T21:57:49.694Z,8.37
2019-02-28T22:00:28.989Z,9.47
2019-02-28T22:02:57.230Z,9.17
2019-02-28T22:05:25.483Z,12.27
2019-02-28T22:07:53.725Z,13.33
2019-02-28T22:10:21.983Z,11.50
2019-02-28T22:12:50.288Z,9.83
2019-02-28T22:15:22.631Z,11.83
2019-02-28T22:17:51.048Z,10.97
2019-02-28T22:20:19.399Z,12.43
2019-02-28T22:22:47.639Z,13.23
2019-02-28T22:25:16.525Z,11.00
2019-02-28T22:27:44.797Z,10.80
2019-02-28T22:30:34.949Z,10.40
2019-02-28T22:33:20.130Z,8.97
2019-02-28T22:35:58.929Z,10.30
2019-02-28T22:38:27.335Z,13.53
2019-02-28T22:40:55.641Z,14.07
2019-02-28T22:43:23.898Z,13.25
2019-02-28T22:45:52.123Z,12.37
2019-02-28T22:48:20.361Z,13.58
2019-02-28T22:50:48.874Z,12.13
2019-02-28T22:53:23.681Z,12.18
2019-02-28T22:56:00.332Z,11.40
2019-02-28T22:58:28.587Z,12.53
2019-02-28T23:01:01.161Z,11.80
2019-02-28T23:03:31.037Z,14.27
2019-02-28T23:05:59.799Z,11.90
2019-02-28T23:08:28.108Z,13.70
2019-02-28T23:10:56.361Z,12.93
2019-02-28T23:13:24.610Z,13.47
2019-02-28T23:15:52.837Z,12.27
2019-02-28T23:18:21.084Z,11.57
2019-02-28T23:20:49.358Z,13.63
2019-02-28T23:23:17.589Z,13.30
2019-02-28T23:25:45.838Z,11.37
2019-02-28T23:28:28.474Z,13.68
2019-02-28T23:31:08.979Z,13.10
2019-02-28T23:33:37.242Z,11.00
2019-02-28T23:36:06.123Z,12.87
2019-02-28T23:38:34.449Z,11.27
2019-02-28T23:41:03.530Z,10.50
2019-02-28T23:43:34.688Z,12.57
2019-02-28T23:46:02.926Z,13.43
2019-02-28T23:48:31.254Z,12.60
2019-02-28T23:50:59.496Z,11.37
2019-02-28T23:53:27.754Z,10.27
2019-02-28T23:55:56.112Z,17.00
2019-02-28T23:58:24.346Z,16.50
